Time;durP1;ratioP1;P1;durP2;ratioP2;P2;SDS_P1;SDS_P2;PMS_P1;PMS_P2;Temp;Humidity;BMP_temperature;BMP_pressure;BME280_temperature;BME280_humidity;BME280_pressure;Samples;Min_cycle;Max_cycle;Signal;HPM_P1;HPM_P2
2021/12/11 00:01:56;;;;;;;41.60;21.63;;;4.10;99.90;;;;;;5078705;28;20115;-84
2021/12/11 00:04:29;;;;;;;33.28;20.15;;;4.20;99.90;;;;;;5078710;28;20522;-82
2021/12/11 00:06:56;;;;;;;36.50;20.75;;;4.10;99.90;;;;;;5073821;28;20111;-83
2021/12/11 00:09:27;;;;;;;39.72;19.60;;;4.10;99.90;;;;;;5074526;28;20024;-83
2021/12/11 00:11:59;;;;;;;35.28;19.92;;;4.20;99.90;;;;;;5077132;28;20028;-83
2021/12/11 00:14:28;;;;;;;34.65;20.48;;;4.20;99.90;;;;;;5079062;28;20100;-83
2021/12/11 00:16:54;;;;;;;37.90;21.23;;;4.20;99.90;;;;;;5077757;28;20031;-84
2021/12/11 00:19:27;;;;;;;37.45;21.20;;;4.20;99.90;;;;;;5093413;28;20024;-83
2021/12/11 00:22:01;;;;;;;35.67;19.52;;;4.20;99.90;;;;;;5094371;28;20081;-83
2021/12/11 00:24:30;;;;;;;41.90;21.48;;;4.20;99.90;;;;;;5094777;28;20039;-84
2021/12/11 00:27:03;;;;;;;36.35;20.65;;;4.20;99.90;;;;;;5095022;28;20032;-84
2021/12/11 00:29:30;;;;;;;42.63;23.70;;;4.20;99.90;;;;;;5093974;28;20069;-83
2021/12/11 00:32:06;;;;;;;48.88;24.60;;;4.20;99.90;;;;;;5093569;28;20016;-83
2021/12/11 00:34:33;;;;;;;52.88;28.17;;;4.20;99.90;;;;;;5093158;28;20117;-83
2021/12/11 00:37:05;;;;;;;55.95;27.27;;;4.20;99.90;;;;;;5094867;28;20060;-83
2021/12/11 00:39:37;;;;;;;46.92;23.42;;;4.20;99.90;;;;;;5094400;28;20028;-83
2021/12/11 00:42:07;;;;;;;41.67;24.02;;;4.30;99.90;;;;;;5094500;28;20029;-84
2021/12/11 00:44:37;;;;;;;43.13;21.77;;;4.20;99.90;;;;;;5093129;28;20044;-83
2021/12/11 00:47:32;;;;;;;;;;;4.20;99.90;;;;;;5094300;28;20090;-83
2021/12/11 00:50:11;;;;;;;42.08;19.95;;;4.30;99.90;;;;;;5080941;28;19989;-84
2021/12/11 00:52:44;;;;;;;39.33;19.60;;;4.30;99.90;;;;;;5096121;28;20028;-83
2021/12/11 00:55:33;;;;;;;39.72;21.00;;;4.30;99.90;;;;;;5097041;28;20028;-83
2021/12/11 00:58:08;;;;;;;40.10;21.17;;;4.20;99.90;;;;;;5097004;28;20490;-83
2021/12/11 01:01:02;;;;;;;35.65;19.83;;;4.20;99.90;;;;;;5097478;28;20023;-83
2021/12/11 01:03:45;;;;;;;37.30;19.83;;;4.20;99.90;;;;;;5089389;28;20052;-84
2021/12/11 01:06:20;;;;;;;37.15;19.85;;;4.20;99.90;;;;;;5097749;28;20399;-83
2021/12/11 01:08:52;;;;;;;31.15;17.63;;;4.20;99.90;;;;;;5098465;28;20059;-83
2021/12/11 01:11:32;;;;;;;31.15;18.25;;;4.20;99.90;;;;;;5097440;28;20154;-83
2021/12/11 01:14:30;;;;;;;33.03;18.55;;;4.20;99.90;;;;;;5098709;28;20533;-85
2021/12/11 01:17:14;;;;;;;36.55;20.15;;;4.20;99.90;;;;;;5097506;28;20507;-83
2021/12/11 01:19:44;;;;;;;33.55;19.00;;;4.20;99.90;;;;;;5096684;28;20024;-84
2021/12/11 01:22:32;;;;;;;44.38;22.50;;;4.20;99.90;;;;;;5097742;28;20064;-83
2021/12/11 01:25:05;;;;;;;38.42;21.50;;;4.20;99.90;;;;;;5098313;28;20051;-83
2021/12/11 01:27:33;;;;;;;36.05;21.27;;;4.20;99.90;;;;;;5100490;28;20035;-83
2021/12/11 01:30:00;;;;;;;44.42;21.98;;;4.20;99.90;;;;;;5097288;28;20028;-82
2021/12/11 01:32:30;;;;;;;38.53;21.27;;;4.20;99.90;;;;;;5095986;28;20358;-83
2021/12/11 01:35:01;;;;;;;35.53;20.05;;;4.20;99.90;;;;;;5096827;28;20467;-83
2021/12/11 01:37:28;;;;;;;34.83;19.85;;;4.20;99.90;;;;;;5096981;28;20032;-82
2021/12/11 01:39:54;;;;;;;42.83;22.17;;;4.20;99.90;;;;;;5095790;28;20024;-82
2021/12/11 01:42:26;;;;;;;35.17;19.33;;;4.20;99.90;;;;;;5096386;28;20021;-83
2021/12/11 01:44:54;;;;;;;39.42;21.17;;;4.20;99.90;;;;;;5096433;28;20047;-83
2021/12/11 01:47:26;;;;;;;31.70;18.90;;;4.20;99.90;;;;;;5096371;28;20028;-83
2021/12/11 01:49:56;;;;;;;32.28;20.00;;;4.20;99.90;;;;;;5095771;28;20471;-83
2021/12/11 01:52:37;;;;;;;39.22;20.80;;;4.20;99.90;;;;;;5096047;28;20042;-85
2021/12/11 01:55:11;;;;;;;34.95;18.90;;;4.20;99.90;;;;;;5095143;28;20027;-83
2021/12/11 01:57:37;;;;;;;35.80;20.30;;;4.20;99.90;;;;;;5095479;28;20101;-84
2021/12/11 02:00:18;;;;;;;35.90;20.42;;;4.20;99.90;;;;;;5095229;28;20074;-84
2021/12/11 02:02:50;;;;;;;34.28;18.27;;;4.20;99.90;;;;;;5075051;28;20029;-83
2021/12/11 02:05:22;;;;;;;32.40;19.23;;;4.10;99.90;;;;;;5074315;28;20036;-84
2021/12/11 02:07:51;;;;;;;36.38;20.08;;;4.10;99.90;;;;;;5075455;28;20029;-84
2021/12/11 02:10:34;;;;;;;43.45;20.15;;;4.10;99.90;;;;;;5076092;28;20025;-84
2021/12/11 02:13:02;;;;;;;33.20;18.52;;;4.10;99.90;;;;;;5076302;28;20025;-84
2021/12/11 02:15:34;;;;;;;30.80;17.40;;;4.20;99.90;;;;;;5074879;28;20521;-84
2021/12/11 02:18:12;;;;;;;31.83;17.35;;;4.10;99.90;;;;;;5079430;28;20031;-84
2021/12/11 02:20:48;;;;;;;32.25;17.63;;;4.10;99.90;;;;;;5075971;28;20005;-83
2021/12/11 02:23:14;;;;;;;29.88;17.98;;;4.10;99.90;;;;;;5075388;28;20056;-84
2021/12/11 02:25:46;;;;;;;32.70;18.48;;;4.10;99.90;;;;;;5075925;28;20068;-83
2021/12/11 02:28:34;;;;;;;31.55;18.02;;;4.10;99.90;;;;;;5078025;28;20020;-84
2021/12/11 02:31:21;;;;;;;32.80;17.40;;;4.20;99.90;;;;;;5075748;28;20102;-84
2021/12/11 02:33:57;;;;;;;30.17;18.13;;;4.10;99.90;;;;;;5078677;28;20013;-83
2021/12/11 02:36:32;;;;;;;43.22;20.88;;;4.10;99.90;;;;;;5074564;28;20032;-84
2021/12/11 02:39:10;;;;;;;36.83;20.98;;;4.10;99.90;;;;;;5074281;28;20029;-84
2021/12/11 02:41:49;;;;;;;37.80;18.63;;;4.10;99.90;;;;;;5074823;28;20020;-84
2021/12/11 02:44:44;;;;;;;46.60;23.80;;;4.10;99.90;;;;;;5074215;28;20101;-83
2021/12/11 02:47:37;;;;;;;41.60;21.73;;;4.10;99.90;;;;;;5077535;28;20031;-84
2021/12/11 02:50:29;;;;;;;37.88;20.77;;;4.10;99.90;;;;;;5078039;28;20228;-84
2021/12/11 02:53:05;;;;;;;33.80;19.40;;;4.10;99.90;;;;;;5074411;28;20476;-83
2021/12/11 02:55:49;;;;;;;36.97;20.48;;;4.10;99.90;;;;;;5074639;28;20029;-83
2021/12/11 02:58:20;;;;;;;34.42;18.00;;;4.10;99.90;;;;;;5073253;28;20021;-83
2021/12/11 03:00:52;;;;;;;35.53;18.38;;;4.10;99.90;;;;;;5075073;28;20534;-83
2021/12/11 03:03:26;;;;;;;34.45;19.80;;;4.20;99.90;;;;;;5081343;28;20413;-83
2021/12/11 03:06:02;;;;;;;35.13;17.65;;;4.20;99.90;;;;;;5076442;28;20032;-83
2021/12/11 03:08:28;;;;;;;31.38;16.95;;;4.30;99.90;;;;;;5073930;28;20078;-83
2021/12/11 03:10:58;;;;;;;30.17;16.83;;;4.20;99.90;;;;;;5084558;28;20020;-82
2021/12/11 03:13:27;;;;;;;33.03;17.02;;;4.20;99.90;;;;;;5074175;28;20025;-82
2021/12/11 03:15:53;;;;;;;32.38;17.55;;;4.20;99.90;;;;;;5073099;28;20511;-84
2021/12/11 03:18:20;;;;;;;29.40;17.05;;;4.30;99.90;;;;;;5072353;28;20025;-83
2021/12/11 03:20:47;;;;;;;34.60;17.73;;;4.20;99.90;;;;;;5072437;28;20084;-83
2021/12/11 03:23:13;;;;;;;23.95;15.15;;;4.20;99.90;;;;;;5072823;28;20035;-83
2021/12/11 03:25:40;;;;;;;32.60;18.02;;;4.20;99.90;;;;;;5073161;28;20487;-83
2021/12/11 03:28:09;;;;;;;31.02;17.67;;;4.10;99.90;;;;;;5073677;28;20388;-84
2021/12/11 03:30:41;;;;;;;29.65;17.15;;;4.20;99.90;;;;;;5073289;28;20028;-83
2021/12/11 03:33:11;;;;;;;27.45;16.33;;;4.20;99.90;;;;;;5074380;28;20099;-84
2021/12/11 03:35:37;;;;;;;32.83;17.05;;;4.20;99.90;;;;;;5074528;28;20054;-83
2021/12/11 03:38:04;;;;;;;32.33;17.52;;;4.30;99.90;;;;;;5074647;28;20032;-83
2021/12/11 03:40:30;;;;;;;31.88;16.80;;;4.30;99.90;;;;;;5071968;28;20429;-83
2021/12/11 03:42:59;;;;;;;29.92;16.65;;;4.30;99.90;;;;;;5073595;28;20025;-83
2021/12/11 03:45:29;;;;;;;35.72;17.00;;;4.30;99.90;;;;;;5072924;28;20054;-83
2021/12/11 03:48:06;;;;;;;29.33;15.93;;;4.40;99.90;;;;;;5073459;28;20027;-83
2021/12/11 03:50:32;;;;;;;29.88;15.82;;;4.30;99.90;;;;;;5073256;28;20047;-84
2021/12/11 03:52:58;;;;;;;28.40;16.63;;;4.30;99.90;;;;;;5072508;28;20047;-83
2021/12/11 03:55:28;;;;;;;39.35;17.40;;;4.40;99.90;;;;;;5073932;28;20086;-83
2021/12/11 03:57:58;;;;;;;36.70;16.17;;;4.40;99.90;;;;;;5072606;28;20469;-83
2021/12/11 04:00:30;;;;;;;32.85;17.10;;;4.40;99.90;;;;;;5072245;28;20388;-83
2021/12/11 04:03:03;;;;;;;31.35;15.32;;;4.40;99.90;;;;;;5073440;28;20033;-84
2021/12/11 04:05:36;;;;;;;30.90;16.40;;;4.40;99.90;;;;;;5074355;28;20037;-84
2021/12/11 04:08:04;;;;;;;34.42;17.05;;;4.40;99.90;;;;;;5072537;28;20539;-83
2021/12/11 04:10:30;;;;;;;29.15;15.00;;;4.50;99.90;;;;;;5073027;28;20371;-83
2021/12/11 04:13:00;;;;;;;26.48;16.08;;;4.40;99.90;;;;;;5073612;28;20023;-84
2021/12/11 04:15:26;;;;;;;33.88;16.60;;;4.40;99.90;;;;;;5072727;28;20074;-84
2021/12/11 04:17:54;;;;;;;29.77;16.88;;;4.50;99.90;;;;;;5073523;28;20047;-83
2021/12/11 04:20:22;;;;;;;28.10;15.98;;;4.50;99.90;;;;;;5079704;28;20028;-83
2021/12/11 04:22:48;;;;;;;34.42;18.17;;;4.50;99.90;;;;;;5092115;28;20031;-82
2021/12/11 04:25:16;;;;;;;27.92;15.45;;;4.50;99.90;;;;;;5078061;28;20110;-82
2021/12/11 04:27:42;;;;;;;28.00;15.38;;;4.40;99.90;;;;;;5073819;28;20020;-82
2021/12/11 04:30:09;;;;;;;29.42;15.85;;;4.40;99.90;;;;;;5080333;28;20025;-82
2021/12/11 04:32:36;;;;;;;25.67;14.55;;;4.40;99.90;;;;;;5080662;28;20031;-82
2021/12/11 04:35:04;;;;;;;23.15;13.95;;;4.30;99.90;;;;;;5077259;28;20127;-82
2021/12/11 04:37:31;;;;;;;28.25;15.98;;;4.20;99.90;;;;;;5081748;28;20036;-82
2021/12/11 04:40:05;;;;;;;28.88;16.08;;;4.10;99.90;;;;;;5077480;28;20056;-84
2021/12/11 04:42:47;;;;;;;32.45;16.75;;;4.10;99.90;;;;;;5079987;28;20032;-82
2021/12/11 04:45:32;;;;;;;33.78;17.65;;;4.10;99.90;;;;;;5076495;28;20059;-83
2021/12/11 04:48:07;;;;;;;31.80;17.73;;;4.20;99.90;;;;;;5075996;28;20095;-82
2021/12/11 04:50:50;;;;;;;29.45;16.05;;;4.20;99.90;;;;;;5076168;28;20375;-83
2021/12/11 04:54:07;;;;;;;33.13;17.20;;;4.30;99.90;;;;;;5076409;28;20483;-82
2021/12/11 04:58:56;;;;;;;33.65;18.30;;;4.30;99.90;;;;;;5076344;28;20468;-83
2021/12/11 05:01:45;;;;;;;30.25;16.75;;;4.30;99.90;;;;;;5075965;28;20539;-83
2021/12/11 05:06:52;;;;;;;31.30;14.23;;;4.40;99.90;;;;;;5076388;28;20036;-84
2021/12/11 05:12:26;;;;;;;29.33;15.95;;;4.50;99.90;;;;;;5067345;28;20102;-82
2021/12/11 05:14:52;;;;;;;23.77;14.32;;;4.50;99.90;;;;;;5076695;28;20154;-84
2021/12/11 05:17:20;;;;;;;28.48;14.77;;;4.50;99.90;;;;;;5075568;28;20031;-83
2021/12/11 05:19:46;;;;;;;27.02;16.95;;;4.60;99.90;;;;;;5076623;28;20051;-83
2021/12/11 05:22:14;;;;;;;26.42;15.27;;;4.60;99.90;;;;;;5078483;28;20031;-83
2021/12/11 05:24:43;;;;;;;24.35;14.70;;;4.60;99.90;;;;;;5078395;28;20035;-83
2021/12/11 05:27:08;;;;;;;24.20;14.43;;;4.60;99.90;;;;;;5076377;28;20104;-83
2021/12/11 05:29:35;;;;;;;29.92;13.95;;;4.60;99.90;;;;;;5076178;28;20441;-83
2021/12/11 05:32:04;;;;;;;24.42;14.02;;;4.70;99.90;;;;;;5076151;28;20029;-82
2021/12/11 05:34:29;;;;;;;26.20;13.82;;;4.70;99.90;;;;;;5077899;28;20393;-84
2021/12/11 05:36:55;;;;;;;31.13;14.60;;;4.70;99.90;;;;;;5077240;28;20025;-82
2021/12/11 05:39:21;;;;;;;25.88;14.32;;;4.70;99.90;;;;;;5073892;28;20541;-82
2021/12/11 05:41:48;;;;;;;21.23;13.43;;;4.70;99.90;;;;;;5075385;28;20028;-83
2021/12/11 05:44:15;;;;;;;24.98;13.75;;;4.70;99.90;;;;;;5075775;28;20028;-83
2021/12/11 05:46:41;;;;;;;23.02;12.88;;;4.80;99.90;;;;;;5075843;28;20534;-83
2021/12/11 05:49:08;;;;;;;26.52;14.15;;;4.80;99.90;;;;;;5076438;28;20020;-82
2021/12/11 05:51:43;;;;;;;23.60;12.27;;;4.90;99.90;;;;;;5074832;28;20028;-84
2021/12/11 05:54:15;;;;;;;20.80;13.23;;;5.00;99.90;;;;;;5075112;28;20059;-82
2021/12/11 05:56:41;;;;;;;21.02;10.80;;;5.00;99.90;;;;;;5076658;28;20030;-84
2021/12/11 05:59:11;;;;;;;24.17;11.15;;;5.00;99.90;;;;;;5075765;28;20430;-82
2021/12/11 06:01:41;;;;;;;20.70;11.15;;;4.90;99.90;;;;;;5076593;28;20063;-82
2021/12/11 06:04:15;;;;;;;23.53;11.30;;;4.90;99.90;;;;;;5076357;28;20124;-83
2021/12/11 06:06:42;;;;;;;21.58;10.18;;;4.80;99.90;;;;;;5075339;28;20543;-82
2021/12/11 06:09:10;;;;;;;22.25;8.73;;;4.90;99.90;;;;;;5076315;28;20354;-82
2021/12/11 06:11:37;;;;;;;17.05;8.07;;;5.00;99.90;;;;;;5075680;28;20016;-82
2021/12/11 06:14:04;;;;;;;20.10;8.43;;;5.00;99.90;;;;;;5075912;28;20032;-83
2021/12/11 06:16:30;;;;;;;23.55;8.90;;;5.10;99.90;;;;;;5076165;28;20025;-83
2021/12/11 06:19:01;;;;;;;16.30;6.35;;;5.10;99.90;;;;;;5076034;28;20021;-82
2021/12/11 06:21:27;;;;;;;18.98;7.32;;;5.10;99.90;;;;;;5075357;28;20107;-84
2021/12/11 06:23:52;;;;;;;13.25;6.07;;;5.20;99.90;;;;;;5076177;28;20105;-83
2021/12/11 06:26:18;;;;;;;19.90;7.40;;;5.20;99.90;;;;;;5075405;28;20383;-83
2021/12/11 06:28:43;;;;;;;22.48;5.45;;;5.10;99.90;;;;;;5074994;28;20027;-83
2021/12/11 06:31:17;;;;;;;16.10;5.82;;;5.20;99.90;;;;;;5076279;28;20024;-83
2021/12/11 06:33:43;;;;;;;10.02;4.70;;;5.20;99.90;;;;;;5076033;28;20031;-84
2021/12/11 06:36:14;;;;;;;17.85;4.43;;;5.20;99.90;;;;;;5074952;28;20025;-83
2021/12/11 06:38:43;;;;;;;21.05;3.25;;;5.20;99.90;;;;;;5075549;28;20029;-84
2021/12/11 06:41:11;;;;;;;14.18;3.85;;;5.30;99.90;;;;;;5075693;28;20028;-82
2021/12/11 06:43:37;;;;;;;14.63;2.65;;;5.50;99.90;;;;;;5075198;28;20028;-83
2021/12/11 06:46:04;;;;;;;20.77;3.83;;;5.60;99.90;;;;;;5078885;28;20083;-84
2021/12/11 06:48:30;;;;;;;9.68;2.13;;;5.70;99.90;;;;;;5075879;28;20028;-83
2021/12/11 06:50:57;;;;;;;6.95;1.10;;;5.70;99.90;;;;;;5076097;28;20126;-83
2021/12/11 06:53:37;;;;;;;11.70;1.45;;;5.70;99.90;;;;;;5076795;28;20068;-84
2021/12/11 06:56:04;;;;;;;14.23;1.17;;;5.80;99.90;;;;;;5080298;28;20118;-84
2021/12/11 06:58:31;;;;;;;16.85;2.17;;;5.80;99.90;;;;;;5076715;28;20032;-83
2021/12/11 07:00:58;;;;;;;12.57;1.80;;;5.80;99.90;;;;;;5075831;28;20032;-84
2021/12/11 07:03:24;;;;;;;9.35;1.20;;;5.70;99.90;;;;;;5074192;28;20031;-82
2021/12/11 07:05:49;;;;;;;11.30;1.50;;;5.70;99.90;;;;;;5074775;28;20036;-81
2021/12/11 07:08:17;;;;;;;19.60;2.30;;;5.80;99.90;;;;;;5073934;28;20047;-83
2021/12/11 07:10:43;;;;;;;9.95;0.93;;;5.80;99.90;;;;;;5089338;28;20062;-83
2021/12/11 07:13:10;;;;;;;16.75;2.00;;;5.80;99.90;;;;;;5079195;28;20406;-84
2021/12/11 07:15:36;;;;;;;11.98;2.20;;;5.80;99.90;;;;;;5075110;28;20492;-83
2021/12/11 07:18:03;;;;;;;4.60;1.48;;;5.80;99.90;;;;;;5073621;28;20033;-84
2021/12/11 07:20:29;;;;;;;4.70;1.83;;;5.80;99.90;;;;;;5072935;28;20029;-83
2021/12/11 07:22:55;;;;;;;8.57;2.53;;;5.70;99.90;;;;;;5073875;28;20415;-85
2021/12/11 07:25:51;;;;;;;10.10;3.10;;;5.60;99.90;;;;;;5082277;28;20028;-85
2021/12/11 07:28:17;;;;;;;7.28;2.67;;;5.60;99.90;;;;;;5073318;28;20039;-83
2021/12/11 07:30:46;;;;;;;15.77;2.95;;;5.50;99.90;;;;;;5075893;28;20028;-83
2021/12/11 07:36:02;;;;;;;13.00;3.33;;;5.40;99.90;;;;;;5072985;28;20044;-84
2021/12/11 07:38:27;;;;;;;9.35;3.38;;;5.20;99.90;;;;;;5074657;28;20082;-84
2021/12/11 07:40:57;;;;;;;10.32;3.72;;;5.10;99.90;;;;;;5075698;28;20025;-84
2021/12/11 07:43:25;;;;;;;18.35;5.68;;;5.10;99.90;;;;;;5073546;28;20514;-85
2021/12/11 07:45:52;;;;;;;7.22;4.47;;;5.10;99.90;;;;;;5075255;28;20041;-83
2021/12/11 07:48:18;;;;;;;10.18;4.28;;;5.00;99.90;;;;;;5077520;28;20056;-84
2021/12/11 07:50:45;;;;;;;16.40;4.78;;;5.00;99.90;;;;;;5077706;28;20028;-84
2021/12/11 07:53:13;;;;;;;12.02;4.90;;;4.90;99.90;;;;;;5081703;28;20032;-84
2021/12/11 07:55:39;;;;;;;14.38;5.95;;;4.90;99.90;;;;;;5089804;28;20479;-84
2021/12/11 07:58:06;;;;;;;14.95;5.47;;;4.90;99.90;;;;;;5084205;28;20036;-84
2021/12/11 08:00:35;;;;;;;12.80;6.50;;;4.80;99.90;;;;;;5089571;28;20024;-84
2021/12/11 08:03:02;;;;;;;15.88;5.85;;;4.70;99.90;;;;;;5090816;28;20027;-83
2021/12/11 08:05:29;;;;;;;20.60;6.88;;;4.60;99.90;;;;;;5097472;28;20490;-84
2021/12/11 08:08:00;;;;;;;23.45;8.35;;;4.60;99.90;;;;;;5098030;28;20017;-83
2021/12/11 08:10:28;;;;;;;13.88;7.45;;;4.20;99.90;;;;;;5097867;28;20446;-83
2021/12/11 08:12:54;;;;;;;22.33;8.93;;;4.40;99.90;;;;;;5099011;28;20020;-83
2021/12/11 08:15:20;;;;;;;25.95;9.18;;;4.40;99.90;;;;;;5086809;28;20094;-83
2021/12/11 08:17:52;;;;;;;28.25;10.43;;;4.30;99.90;;;;;;5091350;28;20415;-82
2021/12/11 08:20:19;;;;;;;25.52;11.18;;;4.30;99.90;;;;;;5094386;28;20024;-82
2021/12/11 08:22:45;;;;;;;24.20;10.52;;;4.30;99.90;;;;;;5096349;28;20031;-82
2021/12/11 08:25:11;;;;;;;23.48;11.15;;;4.40;99.90;;;;;;5092113;28;20466;-82
2021/12/11 08:27:37;;;;;;;26.30;11.90;;;4.40;99.90;;;;;;5097013;28;20456;-82
2021/12/11 08:30:05;;;;;;;29.77;12.13;;;4.30;99.90;;;;;;5087839;28;20032;-82
2021/12/11 08:32:30;;;;;;;25.77;12.77;;;4.20;99.90;;;;;;5094355;28;20031;-81
2021/12/11 08:34:56;;;;;;;29.08;12.30;;;4.30;99.90;;;;;;5087836;28;20019;-80
2021/12/11 08:37:26;;;;;;;32.00;12.48;;;4.30;99.90;;;;;;5097842;28;20042;-83
2021/12/11 08:39:53;;;;;;;27.73;12.65;;;4.30;99.90;;;;;;5082460;28;20044;-82
2021/12/11 08:42:21;;;;;;;34.67;13.13;;;4.30;99.90;;;;;;5088068;28;20056;-82
2021/12/11 08:44:58;;;;;;;34.15;13.27;;;4.40;99.90;;;;;;5096074;28;20050;-81
2021/12/11 08:47:24;;;;;;;30.77;13.88;;;4.40;99.90;;;;;;5098487;28;20027;-81
2021/12/11 08:49:51;;;;;;;36.20;14.02;;;4.40;99.90;;;;;;5077315;28;20116;-80
2021/12/11 08:52:35;;;;;;;27.02;13.52;;;4.40;99.90;;;;;;5095081;28;20020;-75
2021/12/11 08:55:02;;;;;;;32.05;13.77;;;4.50;99.90;;;;;;5081915;28;20021;-76
2021/12/11 08:57:31;;;;;;;35.88;14.32;;;4.50;99.90;;;;;;5088730;28;20021;-74
2021/12/11 09:00:08;;;;;;;29.88;13.90;;;4.50;99.90;;;;;;5092321;28;20073;-74
2021/12/11 09:02:40;;;;;;;31.30;13.98;;;4.60;99.90;;;;;;5091216;28;20031;-74
2021/12/11 09:05:15;;;;;;;25.77;13.13;;;4.50;99.90;;;;;;5085116;28;20396;-74
2021/12/11 09:08:03;;;;;;;29.05;13.48;;;4.60;99.90;;;;;;5075620;28;20112;-75
2021/12/11 09:10:39;;;;;;;33.13;14.27;;;4.60;99.90;;;;;;5076185;28;20074;-75
2021/12/11 09:13:13;;;;;;;29.88;14.13;;;4.70;99.90;;;;;;5075425;28;20024;-76
2021/12/11 09:15:54;;;;;;;36.97;15.20;;;4.70;99.90;;;;;;5075310;28;20468;-75
2021/12/11 09:18:30;;;;;;;38.20;17.05;;;4.80;99.90;;;;;;5075453;28;20033;-75
2021/12/11 09:21:09;;;;;;;35.58;16.52;;;5.00;99.90;;;;;;5075750;28;20058;-74
2021/12/11 09:23:42;;;;;;;35.22;16.60;;;5.00;99.90;;;;;;5074473;28;20544;-74
2021/12/11 09:26:16;;;;;;;32.10;16.38;;;5.10;99.90;;;;;;5074895;28;20048;-75
2021/12/11 09:28:48;;;;;;;35.08;15.98;;;5.20;99.90;;;;;;5075155;28;20025;-75
2021/12/11 09:31:17;;;;;;;38.88;16.92;;;5.20;99.90;;;;;;5074089;28;20020;-74
2021/12/11 09:33:51;;;;;;;36.80;14.77;;;5.30;99.90;;;;;;5075055;28;20037;-74
2021/12/11 09:36:24;;;;;;;23.77;13.77;;;5.20;99.90;;;;;;5075453;28;20021;-79
2021/12/11 09:39:00;;;;;;;28.75;14.93;;;5.30;99.90;;;;;;5083822;28;20052;-76
2021/12/11 09:41:25;;;;;;;33.80;14.38;;;5.30;99.90;;;;;;5096951;28;20020;-76
2021/12/11 09:44:01;;;;;;;30.73;15.02;;;5.40;99.90;;;;;;5101575;28;20068;-76
2021/12/11 09:46:31;;;;;;;30.45;14.65;;;5.50;99.90;;;;;;5104262;28;20051;-78
2021/12/11 09:48:59;;;;;;;32.58;14.82;;;5.70;99.90;;;;;;5108579;28;20031;-77
2021/12/11 09:51:32;;;;;;;32.05;14.93;;;5.80;99.90;;;;;;5091683;28;20046;-80
2021/12/11 09:54:02;;;;;;;35.45;15.02;;;6.00;99.90;;;;;;5102470;28;20497;-75
2021/12/11 09:56:30;;;;;;;;;;;6.00;99.90;;;;;;5102435;28;20024;-76
2021/12/11 09:58:58;;;;;;;32.00;13.75;;;5.90;99.90;;;;;;5107355;28;19919;-75
2021/12/11 10:01:29;;;;;;;31.70;13.23;;;5.90;99.90;;;;;;5105139;28;20030;-79
2021/12/11 10:04:02;;;;;;;22.92;12.25;;;5.80;99.90;;;;;;5110136;28;20043;-77
2021/12/11 10:06:42;;;;;;;24.05;11.80;;;5.80;99.90;;;;;;5100309;28;20085;-76
2021/12/11 10:09:26;;;;;;;26.58;12.10;;;5.70;99.90;;;;;;5108378;28;20046;-76
2021/12/11 10:12:03;;;;;;;26.27;13.88;;;5.60;99.90;;;;;;5094686;28;20043;-76
2021/12/11 10:14:40;;;;;;;27.52;13.60;;;5.60;99.90;;;;;;5102177;28;20095;-75
2021/12/11 10:17:23;;;;;;;33.25;14.77;;;5.70;99.90;;;;;;5100403;28;20099;-75
2021/12/11 10:19:51;;;;;;;29.40;14.40;;;5.70;99.90;;;;;;5097216;28;20024;-75
2021/12/11 10:22:31;;;;;;;34.85;16.40;;;5.80;99.90;;;;;;5106082;28;20115;-76
2021/12/11 10:24:57;;;;;;;32.03;14.57;;;5.80;99.90;;;;;;5107256;28;20474;-76
2021/12/11 10:27:28;;;;;;;33.97;13.93;;;6.10;99.90;;;;;;5097060;28;20028;-75
2021/12/11 10:29:56;;;;;;;28.75;14.30;;;6.20;99.90;;;;;;5099053;28;20028;-75
2021/12/11 10:32:26;;;;;;;23.30;12.85;;;6.30;99.90;;;;;;5092415;28;20377;-78
2021/12/11 10:34:56;;;;;;;25.75;13.23;;;6.50;99.90;;;;;;5095161;28;20031;-76
2021/12/11 10:37:29;;;;;;;21.60;12.55;;;6.60;99.90;;;;;;5110950;28;20031;-75
2021/12/11 10:40:01;;;;;;;28.17;12.35;;;6.70;99.90;;;;;;5103850;28;20024;-75
2021/12/11 10:42:28;;;;;;;21.25;11.85;;;6.80;99.90;;;;;;5104092;28;20357;-75
2021/12/11 10:44:56;;;;;;;17.23;11.15;;;7.00;99.90;;;;;;5103022;28;20048;-75
2021/12/11 10:47:27;;;;;;;19.20;10.07;;;7.10;99.90;;;;;;5100232;28;20024;-76
2021/12/11 10:49:53;;;;;;;21.95;10.23;;;7.20;99.90;;;;;;5101845;28;20032;-75
2021/12/11 10:52:25;;;;;;;16.98;9.38;;;7.30;99.90;;;;;;5099126;28;20024;-76
2021/12/11 10:54:52;;;;;;;17.50;9.20;;;7.40;99.90;;;;;;5101537;28;20039;-76
2021/12/11 10:57:20;;;;;;;15.07;9.48;;;7.30;99.90;;;;;;5103895;28;20098;-75
2021/12/11 10:59:53;;;;;;;14.02;8.35;;;7.40;99.90;;;;;;5102214;28;20099;-74
2021/12/11 11:02:28;;;;;;;13.65;7.78;;;7.40;99.90;;;;;;5098750;28;20031;-75
2021/12/11 11:05:09;;;;;;;12.88;8.48;;;7.50;99.90;;;;;;5095824;28;20064;-76
2021/12/11 11:07:36;;;;;;;14.68;8.10;;;7.60;99.90;;;;;;5103432;28;20039;-76
2021/12/11 11:10:05;;;;;;;15.07;7.72;;;7.70;99.90;;;;;;5098344;28;20039;-76
2021/12/11 11:12:31;;;;;;;9.53;7.43;;;7.70;99.90;;;;;;5104486;28;20387;-76
2021/12/11 11:14:57;;;;;;;15.00;7.82;;;7.70;99.90;;;;;;5099009;28;20028;-75
2021/12/11 11:17:28;;;;;;;10.93;7.30;;;7.70;99.90;;;;;;5108157;28;20035;-76
2021/12/11 11:19:55;;;;;;;9.88;7.10;;;7.80;99.90;;;;;;5102547;28;20035;-74
2021/12/11 11:22:30;;;;;;;16.08;7.13;;;7.80;99.90;;;;;;5084284;28;20056;-76
2021/12/11 11:25:29;;;;;;;15.20;7.68;;;7.90;99.90;;;;;;5085190;28;20039;-77
2021/12/11 11:28:00;;;;;;;13.73;6.78;;;8.00;99.90;;;;;;5092492;28;20169;-75
2021/12/11 11:30:32;;;;;;;;;;;7.90;99.90;;;;;;5090712;28;20043;-75
2021/12/11 11:32:58;;;;;;;8.27;6.18;;;8.00;99.90;;;;;;5093860;28;19911;-77
2021/12/11 11:35:26;;;;;;;13.90;6.88;;;7.90;99.90;;;;;;5093709;28;20032;-77
2021/12/11 11:37:56;;;;;;;13.80;6.07;;;7.90;99.90;;;;;;5085377;28;20024;-76
2021/12/11 11:40:29;;;;;;;9.60;5.85;;;8.00;99.90;;;;;;5103659;28;20038;-77
2021/12/11 11:42:57;;;;;;;10.38;5.63;;;8.10;99.90;;;;;;5107234;28;20059;-75
2021/12/11 11:45:24;;;;;;;10.15;6.88;;;8.10;99.90;;;;;;5097802;28;20575;-75
2021/12/11 11:47:54;;;;;;;13.45;6.47;;;8.30;99.90;;;;;;5092269;28;20044;-75
2021/12/11 11:50:22;;;;;;;15.63;5.80;;;8.40;99.90;;;;;;5104947;28;20081;-77
2021/12/11 11:52:48;;;;;;;10.60;6.45;;;8.50;99.90;;;;;;5110906;28;20024;-77
2021/12/11 11:55:22;;;;;;;17.55;6.03;;;8.40;99.90;;;;;;5095422;28;20043;-77
2021/12/11 11:57:50;;;;;;;17.30;6.43;;;8.40;99.90;;;;;;5097844;28;20479;-77
2021/12/11 12:00:28;;;;;;;15.45;6.72;;;8.50;99.90;;;;;;5108073;28;20032;-76
2021/12/11 12:02:55;;;;;;;19.42;7.18;;;8.40;99.90;;;;;;5100621;28;20031;-76
2021/12/11 12:05:22;;;;;;;16.83;9.20;;;8.50;99.90;;;;;;5106423;28;20047;-75
2021/12/11 12:07:47;;;;;;;14.52;6.88;;;8.50;99.90;;;;;;5107539;28;20478;-76
2021/12/11 12:10:18;;;;;;;10.38;6.07;;;8.50;99.90;;;;;;5092187;28;20040;-76
2021/12/11 12:12:43;;;;;;;12.88;6.65;;;8.40;99.90;;;;;;5090325;28;20050;-75
2021/12/11 12:15:16;;;;;;;12.38;5.45;;;8.40;99.90;;;;;;5094260;28;20028;-76
2021/12/11 12:17:42;;;;;;;13.50;6.00;;;8.40;99.90;;;;;;5098118;28;20476;-75
2021/12/11 12:20:10;;;;;;;17.13;5.75;;;8.30;99.90;;;;;;5097061;28;20028;-76
2021/12/11 12:22:36;;;;;;;15.13;4.50;;;8.30;99.90;;;;;;5104958;28;20059;-75
2021/12/11 12:25:03;;;;;;;8.85;3.10;;;8.20;99.90;;;;;;5102219;28;20075;-74
2021/12/11 12:27:33;;;;;;;9.35;3.47;;;8.20;99.90;;;;;;5103947;28;20066;-75
2021/12/11 12:30:00;;;;;;;10.07;3.67;;;8.10;99.90;;;;;;5097946;28;20028;-76
2021/12/11 12:32:30;;;;;;;12.02;3.17;;;8.00;99.90;;;;;;5105450;28;20079;-75
2021/12/11 12:35:03;;;;;;;11.63;3.37;;;8.00;99.90;;;;;;5098118;28;20104;-76
2021/12/11 12:37:29;;;;;;;14.02;4.55;;;8.00;99.90;;;;;;5098549;28;20081;-74
2021/12/11 12:39:58;;;;;;;10.05;3.33;;;8.10;99.90;;;;;;5103983;28;20420;-74
2021/12/11 12:42:35;;;;;;;7.68;2.70;;;8.20;99.90;;;;;;5100101;28;20027;-75
2021/12/11 12:45:05;;;;;;;13.43;2.58;;;8.30;99.90;;;;;;5106572;28;20495;-75
2021/12/11 12:47:35;;;;;;;14.85;2.90;;;8.30;99.90;;;;;;5102788;28;20388;-75
2021/12/11 12:50:20;;;;;;;12.38;3.33;;;8.30;99.90;;;;;;5095709;28;20027;-76
2021/12/11 12:52:46;;;;;;;19.63;3.55;;;8.40;99.90;;;;;;5098860;28;20028;-76
2021/12/11 12:55:23;;;;;;;15.65;2.90;;;8.40;99.90;;;;;;5109686;28;20023;-75
2021/12/11 12:57:51;;;;;;;12.82;3.28;;;8.40;99.90;;;;;;5103449;28;20117;-76
2021/12/11 13:00:28;;;;;;;10.18;2.90;;;8.40;99.90;;;;;;5103946;28;20464;-75
2021/12/11 13:03:06;;;;;;;15.73;3.10;;;8.40;99.90;;;;;;5092185;28;20042;-75
2021/12/11 13:05:41;;;;;;;12.05;3.22;;;8.50;99.90;;;;;;5089303;28;20032;-76
2021/12/11 13:08:13;;;;;;;13.50;3.85;;;8.60;99.90;;;;;;5093911;28;20024;-76
2021/12/11 13:10:44;;;;;;;10.38;2.65;;;8.60;99.90;;;;;;5083832;28;20112;-77
2021/12/11 13:13:12;;;;;;;11.00;3.17;;;8.70;99.90;;;;;;5090402;28;20031;-76